Terminal Aerodrome Forecast
Issued by NWS

Current Version | Previous Version | Text Only | Print | Product List | Glossary Off
Versions: 1 2 3 4 5 6 7 8 9 10 11 12 13 14 15

000
FTUS41 KPBZ 220500
TAFMGW
TAF
KMGW 220520Z 2206/2306 20006KT P6SM BKN250
     FM220800 23005KT P6SM OVC080
     FM221300 21010KT 6SM -RA BKN015
     FM222000 32010G18KT P6SM BKN025
     FM230100 33006KT P6SM BKN040=

USA.gov is the U.S. government's official web portal to all federal, state and local government web resources and services.